sensor_id;sensor_type;location;lat;lon;timestamp;temperature;humidity
11122;DHT22;5615;49.304;10.576;2023-11-21T00:01:54;6.80;99.90
11122;DHT22;5615;49.304;10.576;2023-11-21T00:04:22;6.70;99.90
11122;DHT22;5615;49.304;10.576;2023-11-21T00:06:50;6.80;99.90
11122;DHT22;5615;49.304;10.576;2023-11-21T00:09:17;6.70;99.90
11122;DHT22;5615;49.304;10.576;2023-11-21T00:11:45;6.70;99.90
11122;DHT22;5615;49.304;10.576;2023-11-21T00:14:11;6.70;99.90
11122;DHT22;5615;49.304;10.576;2023-11-21T00:16:40;6.70;99.90
11122;DHT22;5615;49.304;10.576;2023-11-21T00:19:07;6.70;99.90
11122;DHT22;5615;49.304;10.576;2023-11-21T00:21:33;6.70;99.90
11122;DHT22;5615;49.304;10.576;2023-11-21T00:24:01;6.70;99.90
11122;DHT22;5615;49.304;10.576;2023-11-21T00:26:28;6.70;99.90
11122;DHT22;5615;49.304;10.576;2023-11-21T00:28:56;6.70;99.90
11122;DHT22;5615;49.304;10.576;2023-11-21T00:31:23;6.60;99.90
11122;DHT22;5615;49.304;10.576;2023-11-21T00:33:50;6.70;99.90
11122;DHT22;5615;49.304;10.576;2023-11-21T00:36:16;6.60;99.90
11122;DHT22;5615;49.304;10.576;2023-11-21T00:38:43;6.60;99.90
11122;DHT22;5615;49.304;10.576;2023-11-21T00:41:11;6.60;99.90
11122;DHT22;5615;49.304;10.576;2023-11-21T00:43:37;6.70;99.90
11122;DHT22;5615;49.304;10.576;2023-11-21T00:46:04;6.70;99.90
11122;DHT22;5615;49.304;10.576;2023-11-21T00:48:32;6.70;99.90
11122;DHT22;5615;49.304;10.576;2023-11-21T00:50:59;6.70;99.90
11122;DHT22;5615;49.304;10.576;2023-11-21T00:53:26;6.70;99.90
11122;DHT22;5615;49.304;10.576;2023-11-21T00:55:53;6.60;99.90
11122;DHT22;5615;49.304;10.576;2023-11-21T00:58:23;6.70;99.90
11122;DHT22;5615;49.304;10.576;2023-11-21T01:00:50;6.70;99.90
11122;DHT22;5615;49.304;10.576;2023-11-21T01:03:17;6.60;99.90
11122;DHT22;5615;49.304;10.576;2023-11-21T01:05:43;6.60;99.90
11122;DHT22;5615;49.304;10.576;2023-11-21T01:08:10;6.60;99.90
11122;DHT22;5615;49.304;10.576;2023-11-21T01:10:37;6.60;99.90
11122;DHT22;5615;49.304;10.576;2023-11-21T01:13:04;6.60;99.90
11122;DHT22;5615;49.304;10.576;2023-11-21T01:15:34;6.60;99.90
11122;DHT22;5615;49.304;10.576;2023-11-21T01:18:00;6.60;99.90
11122;DHT22;5615;49.304;10.576;2023-11-21T01:20:27;6.60;99.90
11122;DHT22;5615;49.304;10.576;2023-11-21T01:22:54;6.60;99.90
11122;DHT22;5615;49.304;10.576;2023-11-21T01:25:20;6.60;99.90
11122;DHT22;5615;49.304;10.576;2023-11-21T01:27:47;6.50;99.90
11122;DHT22;5615;49.304;10.576;2023-11-21T01:30:14;6.60;99.90
11122;DHT22;5615;49.304;10.576;2023-11-21T01:32:43;6.60;99.90
11122;DHT22;5615;49.304;10.576;2023-11-21T01:35:09;6.70;99.90
11122;DHT22;5615;49.304;10.576;2023-11-21T01:37:36;6.60;99.90
11122;DHT22;5615;49.304;10.576;2023-11-21T01:40:03;6.60;99.90
11122;DHT22;5615;49.304;10.576;2023-11-21T01:42:34;6.60;99.90
11122;DHT22;5615;49.304;10.576;2023-11-21T01:45:00;6.60;99.90
11122;DHT22;5615;49.304;10.576;2023-11-21T01:47:30;6.60;99.90
11122;DHT22;5615;49.304;10.576;2023-11-21T01:49:58;6.60;99.90
11122;DHT22;5615;49.304;10.576;2023-11-21T01:52:26;6.60;99.90
11122;DHT22;5615;49.304;10.576;2023-11-21T01:54:53;6.60;99.90
11122;DHT22;5615;49.304;10.576;2023-11-21T01:57:20;6.60;99.90
11122;DHT22;5615;49.304;10.576;2023-11-21T01:59:49;6.60;99.90
11122;DHT22;5615;49.304;10.576;2023-11-21T02:02:15;6.60;99.90
11122;DHT22;5615;49.304;10.576;2023-11-21T02:04:42;6.60;99.90
11122;DHT22;5615;49.304;10.576;2023-11-21T02:07:10;6.60;99.90
11122;DHT22;5615;49.304;10.576;2023-11-21T02:09:37;6.60;99.90
11122;DHT22;5615;49.304;10.576;2023-11-21T02:12:08;6.70;99.90
11122;DHT22;5615;49.304;10.576;2023-11-21T02:14:36;6.70;99.90
11122;DHT22;5615;49.304;10.576;2023-11-21T02:17:02;6.70;99.90
11122;DHT22;5615;49.304;10.576;2023-11-21T02:19:29;6.70;99.90
11122;DHT22;5615;49.304;10.576;2023-11-21T02:21:58;6.70;99.90
11122;DHT22;5615;49.304;10.576;2023-11-21T02:24:29;6.70;99.90
11122;DHT22;5615;49.304;10.576;2023-11-21T02:26:57;6.70;99.90
11122;DHT22;5615;49.304;10.576;2023-11-21T02:29:24;6.70;99.90
11122;DHT22;5615;49.304;10.576;2023-11-21T02:31:53;6.70;99.90
11122;DHT22;5615;49.304;10.576;2023-11-21T02:34:21;6.70;99.90
11122;DHT22;5615;49.304;10.576;2023-11-21T02:36:48;6.60;99.90
11122;DHT22;5615;49.304;10.576;2023-11-21T02:39:15;6.60;99.90
11122;DHT22;5615;49.304;10.576;2023-11-21T02:41:43;6.60;99.90
11122;DHT22;5615;49.304;10.576;2023-11-21T02:44:10;6.60;99.90
11122;DHT22;5615;49.304;10.576;2023-11-21T02:46:37;6.60;99.90
11122;DHT22;5615;49.304;10.576;2023-11-21T02:49:06;6.60;99.90
11122;DHT22;5615;49.304;10.576;2023-11-21T02:51:32;6.60;99.90
11122;DHT22;5615;49.304;10.576;2023-11-21T02:53:59;6.60;99.90
11122;DHT22;5615;49.304;10.576;2023-11-21T02:56:28;6.60;99.90
11122;DHT22;5615;49.304;10.576;2023-11-21T02:58:56;6.60;99.90
11122;DHT22;5615;49.304;10.576;2023-11-21T03:01:23;6.60;99.90
11122;DHT22;5615;49.304;10.576;2023-11-21T03:03:50;6.60;99.90
11122;DHT22;5615;49.304;10.576;2023-11-21T03:06:17;6.60;99.90
11122;DHT22;5615;49.304;10.576;2023-11-21T03:08:44;6.60;99.90
11122;DHT22;5615;49.304;10.576;2023-11-21T03:11:11;6.60;99.90
11122;DHT22;5615;49.304;10.576;2023-11-21T03:13:38;6.60;99.90
11122;DHT22;5615;49.304;10.576;2023-11-21T03:16:07;6.60;99.90
11122;DHT22;5615;49.304;10.576;2023-11-21T03:18:34;6.60;99.90
11122;DHT22;5615;49.304;10.576;2023-11-21T03:21:01;6.60;99.90
11122;DHT22;5615;49.304;10.576;2023-11-21T03:23:28;6.60;99.90
11122;DHT22;5615;49.304;10.576;2023-11-21T03:25:55;6.50;99.90
11122;DHT22;5615;49.304;10.576;2023-11-21T03:28:21;6.50;99.90
11122;DHT22;5615;49.304;10.576;2023-11-21T03:30:49;6.50;99.90
11122;DHT22;5615;49.304;10.576;2023-11-21T03:33:17;6.50;99.90
11122;DHT22;5615;49.304;10.576;2023-11-21T03:35:43;6.50;99.90
11122;DHT22;5615;49.304;10.576;2023-11-21T03:38:10;6.50;99.90
11122;DHT22;5615;49.304;10.576;2023-11-21T03:40:38;6.50;99.90
11122;DHT22;5615;49.304;10.576;2023-11-21T03:43:05;6.50;99.90
11122;DHT22;5615;49.304;10.576;2023-11-21T03:45:31;6.50;99.90
11122;DHT22;5615;49.304;10.576;2023-11-21T03:47:58;6.50;99.90
11122;DHT22;5615;49.304;10.576;2023-11-21T03:50:28;6.50;99.90
11122;DHT22;5615;49.304;10.576;2023-11-21T03:52:54;6.50;99.90
11122;DHT22;5615;49.304;10.576;2023-11-21T03:55:21;6.50;99.90
11122;DHT22;5615;49.304;10.576;2023-11-21T03:57:48;6.60;99.90
11122;DHT22;5615;49.304;10.576;2023-11-21T04:00:16;6.60;99.90
11122;DHT22;5615;49.304;10.576;2023-11-21T04:02:42;6.60;99.90
11122;DHT22;5615;49.304;10.576;2023-11-21T04:05:09;6.60;99.90
11122;DHT22;5615;49.304;10.576;2023-11-21T04:07:37;6.60;99.90
11122;DHT22;5615;49.304;10.576;2023-11-21T04:10:05;6.60;99.90
11122;DHT22;5615;49.304;10.576;2023-11-21T04:12:33;6.60;99.90
11122;DHT22;5615;49.304;10.576;2023-11-21T04:15:00;6.60;99.90
11122;DHT22;5615;49.304;10.576;2023-11-21T04:17:26;6.60;99.90
11122;DHT22;5615;49.304;10.576;2023-11-21T04:19:53;6.60;99.90
11122;DHT22;5615;49.304;10.576;2023-11-21T04:22:19;6.60;99.90
11122;DHT22;5615;49.304;10.576;2023-11-21T04:24:47;6.60;99.90
11122;DHT22;5615;49.304;10.576;2023-11-21T04:27:14;6.60;99.90
11122;DHT22;5615;49.304;10.576;2023-11-21T04:29:43;6.60;99.90
11122;DHT22;5615;49.304;10.576;2023-11-21T04:32:10;6.60;99.90
11122;DHT22;5615;49.304;10.576;2023-11-21T04:34:38;6.60;99.90
11122;DHT22;5615;49.304;10.576;2023-11-21T04:37:04;6.60;99.90
11122;DHT22;5615;49.304;10.576;2023-11-21T04:39:31;6.50;99.90
11122;DHT22;5615;49.304;10.576;2023-11-21T04:41:59;6.50;99.90
11122;DHT22;5615;49.304;10.576;2023-11-21T04:44:26;6.60;99.90
11122;DHT22;5615;49.304;10.576;2023-11-21T04:46:53;6.50;99.90
11122;DHT22;5615;49.304;10.576;2023-11-21T04:49:19;6.50;99.90
11122;DHT22;5615;49.304;10.576;2023-11-21T04:51:46;6.50;99.90
11122;DHT22;5615;49.304;10.576;2023-11-21T04:54:12;6.60;99.90
11122;DHT22;5615;49.304;10.576;2023-11-21T04:56:39;6.50;99.90
11122;DHT22;5615;49.304;10.576;2023-11-21T04:59:07;6.50;99.90
11122;DHT22;5615;49.304;10.576;2023-11-21T05:01:34;6.50;99.90
11122;DHT22;5615;49.304;10.576;2023-11-21T05:04:02;6.50;99.90
11122;DHT22;5615;49.304;10.576;2023-11-21T05:06:28;6.40;99.90
11122;DHT22;5615;49.304;10.576;2023-11-21T05:08:55;6.40;99.90
11122;DHT22;5615;49.304;10.576;2023-11-21T05:11:25;6.50;99.90
11122;DHT22;5615;49.304;10.576;2023-11-21T05:13:51;6.40;99.90
11122;DHT22;5615;49.304;10.576;2023-11-21T05:16:20;6.40;99.90
11122;DHT22;5615;49.304;10.576;2023-11-21T05:18:47;6.40;99.90
11122;DHT22;5615;49.304;10.576;2023-11-21T05:21:16;6.50;99.90
11122;DHT22;5615;49.304;10.576;2023-11-21T05:23:42;6.40;99.90
11122;DHT22;5615;49.304;10.576;2023-11-21T05:26:09;6.50;99.90
11122;DHT22;5615;49.304;10.576;2023-11-21T05:28:35;6.50;99.90
11122;DHT22;5615;49.304;10.576;2023-11-21T05:31:02;6.50;99.90
11122;DHT22;5615;49.304;10.576;2023-11-21T05:33:30;6.50;99.90
11122;DHT22;5615;49.304;10.576;2023-11-21T05:35:58;6.50;99.90
11122;DHT22;5615;49.304;10.576;2023-11-21T05:38:25;6.50;99.90
11122;DHT22;5615;49.304;10.576;2023-11-21T05:40:52;6.50;99.90
11122;DHT22;5615;49.304;10.576;2023-11-21T05:43:18;6.50;99.90
11122;DHT22;5615;49.304;10.576;2023-11-21T05:45:45;6.50;99.90
11122;DHT22;5615;49.304;10.576;2023-11-21T05:48:11;6.50;99.90
11122;DHT22;5615;49.304;10.576;2023-11-21T05:50:40;6.50;99.90
11122;DHT22;5615;49.304;10.576;2023-11-21T05:53:06;6.50;99.90
11122;DHT22;5615;49.304;10.576;2023-11-21T05:55:35;6.50;99.90
11122;DHT22;5615;49.304;10.576;2023-11-21T05:58:02;6.50;99.90
11122;DHT22;5615;49.304;10.576;2023-11-21T06:00:29;6.50;99.90
11122;DHT22;5615;49.304;10.576;2023-11-21T06:02:57;6.40;99.90
11122;DHT22;5615;49.304;10.576;2023-11-21T06:05:25;6.50;99.90
11122;DHT22;5615;49.304;10.576;2023-11-21T06:07:54;6.50;99.90
11122;DHT22;5615;49.304;10.576;2023-11-21T06:10:21;6.50;99.90
11122;DHT22;5615;49.304;10.576;2023-11-21T06:12:49;6.40;99.90
11122;DHT22;5615;49.304;10.576;2023-11-21T06:15:16;6.50;99.90
11122;DHT22;5615;49.304;10.576;2023-11-21T06:17:44;6.40;99.90
11122;DHT22;5615;49.304;10.576;2023-11-21T06:20:15;6.50;99.90
11122;DHT22;5615;49.304;10.576;2023-11-21T06:22:44;6.50;99.90
11122;DHT22;5615;49.304;10.576;2023-11-21T06:25:13;6.50;99.90
11122;DHT22;5615;49.304;10.576;2023-11-21T06:27:41;6.50;99.90
11122;DHT22;5615;49.304;10.576;2023-11-21T06:30:08;6.50;99.90
11122;DHT22;5615;49.304;10.576;2023-11-21T06:32:35;6.50;99.90
11122;DHT22;5615;49.304;10.576;2023-11-21T06:35:02;6.50;99.90
11122;DHT22;5615;49.304;10.576;2023-11-21T06:37:29;6.50;99.90
11122;DHT22;5615;49.304;10.576;2023-11-21T06:39:57;6.50;99.90
11122;DHT22;5615;49.304;10.576;2023-11-21T06:42:26;6.50;99.90
11122;DHT22;5615;49.304;10.576;2023-11-21T06:44:54;6.50;99.90
11122;DHT22;5615;49.304;10.576;2023-11-21T06:47:22;6.50;99.90
11122;DHT22;5615;49.304;10.576;2023-11-21T06:49:50;6.60;99.90
11122;DHT22;5615;49.304;10.576;2023-11-21T06:52:17;6.60;99.90
11122;DHT22;5615;49.304;10.576;2023-11-21T06:54:44;6.70;99.90
11122;DHT22;5615;49.304;10.576;2023-11-21T06:57:13;6.60;99.90
11122;DHT22;5615;49.304;10.576;2023-11-21T06:59:41;6.60;99.90
11122;DHT22;5615;49.304;10.576;2023-11-21T07:02:08;6.60;99.90
11122;DHT22;5615;49.304;10.576;2023-11-21T07:04:34;6.60;99.90
11122;DHT22;5615;49.304;10.576;2023-11-21T07:07:02;6.70;99.90
11122;DHT22;5615;49.304;10.576;2023-11-21T07:09:29;6.70;99.90
11122;DHT22;5615;49.304;10.576;2023-11-21T07:11:56;6.70;99.90
11122;DHT22;5615;49.304;10.576;2023-11-21T07:14:23;6.70;99.90
11122;DHT22;5615;49.304;10.576;2023-11-21T07:16:51;6.80;99.90
11122;DHT22;5615;49.304;10.576;2023-11-21T07:19:18;6.80;99.90
11122;DHT22;5615;49.304;10.576;2023-11-21T07:21:45;6.80;99.90
11122;DHT22;5615;49.304;10.576;2023-11-21T07:24:12;6.80;99.90
11122;DHT22;5615;49.304;10.576;2023-11-21T07:26:38;6.80;99.90
11122;DHT22;5615;49.304;10.576;2023-11-21T07:29:05;6.80;99.90
11122;DHT22;5615;49.304;10.576;2023-11-21T07:31:32;6.80;99.90
11122;DHT22;5615;49.304;10.576;2023-11-21T07:34:01;6.80;99.90
11122;DHT22;5615;49.304;10.576;2023-11-21T07:36:28;6.80;99.90
11122;DHT22;5615;49.304;10.576;2023-11-21T07:38:55;6.80;99.90
11122;DHT22;5615;49.304;10.576;2023-11-21T07:41:21;6.90;99.90
11122;DHT22;5615;49.304;10.576;2023-11-21T07:43:48;6.90;99.90
11122;DHT22;5615;49.304;10.576;2023-11-21T07:46:15;6.90;99.90
11122;DHT22;5615;49.304;10.576;2023-11-21T07:48:42;7.00;99.90
11122;DHT22;5615;49.304;10.576;2023-11-21T07:51:10;7.00;99.90
11122;DHT22;5615;49.304;10.576;2023-11-21T07:53:38;7.00;99.90
11122;DHT22;5615;49.304;10.576;2023-11-21T07:56:07;7.00;99.90
11122;DHT22;5615;49.304;10.576;2023-11-21T07:58:34;7.10;99.90
11122;DHT22;5615;49.304;10.576;2023-11-21T08:01:02;7.10;99.90
11122;DHT22;5615;49.304;10.576;2023-11-21T08:03:29;7.00;99.90
11122;DHT22;5615;49.304;10.576;2023-11-21T08:05:56;7.10;99.90
11122;DHT22;5615;49.304;10.576;2023-11-21T08:08:24;7.10;99.90
11122;DHT22;5615;49.304;10.576;2023-11-21T08:10:51;7.10;99.90
11122;DHT22;5615;49.304;10.576;2023-11-21T08:13:21;7.10;99.90
11122;DHT22;5615;49.304;10.576;2023-11-21T08:15:48;7.10;99.90
11122;DHT22;5615;49.304;10.576;2023-11-21T08:18:15;7.20;99.90
11122;DHT22;5615;49.304;10.576;2023-11-21T08:20:43;7.20;99.90
11122;DHT22;5615;49.304;10.576;2023-11-21T08:23:13;7.20;99.90
11122;DHT22;5615;49.304;10.576;2023-11-21T08:25:42;7.20;99.90
11122;DHT22;5615;49.304;10.576;2023-11-21T08:28:09;7.20;99.90
11122;DHT22;5615;49.304;10.576;2023-11-21T08:30:36;7.20;99.90
11122;DHT22;5615;49.304;10.576;2023-11-21T08:33:03;7.20;99.90
11122;DHT22;5615;49.304;10.576;2023-11-21T08:35:29;7.30;99.90
11122;DHT22;5615;49.304;10.576;2023-11-21T08:37:56;7.30;99.90
11122;DHT22;5615;49.304;10.576;2023-11-21T08:40:23;7.40;99.90
11122;DHT22;5615;49.304;10.576;2023-11-21T08:42:52;7.40;99.90
11122;DHT22;5615;49.304;10.576;2023-11-21T08:45:19;7.50;99.90
11122;DHT22;5615;49.304;10.576;2023-11-21T08:47:46;7.50;99.90
11122;DHT22;5615;49.304;10.576;2023-11-21T08:50:13;7.60;99.90
11122;DHT22;5615;49.304;10.576;2023-11-21T08:52:41;7.60;99.90
11122;DHT22;5615;49.304;10.576;2023-11-21T08:55:08;7.70;99.90
11122;DHT22;5615;49.304;10.576;2023-11-21T08:57:38;7.90;99.90
11122;DHT22;5615;49.304;10.576;2023-11-21T09:00:08;8.10;99.90
11122;DHT22;5615;49.304;10.576;2023-11-21T09:02:37;8.20;99.90
11122;DHT22;5615;49.304;10.576;2023-11-21T09:05:04;8.30;99.90
11122;DHT22;5615;49.304;10.576;2023-11-21T09:07:32;8.40;99.90
11122;DHT22;5615;49.304;10.576;2023-11-21T09:09:58;8.50;99.90
11122;DHT22;5615;49.304;10.576;2023-11-21T09:12:25;8.60;99.90
11122;DHT22;5615;49.304;10.576;2023-11-21T09:14:52;8.60;99.90
11122;DHT22;5615;49.304;10.576;2023-11-21T09:17:20;8.60;99.90
11122;DHT22;5615;49.304;10.576;2023-11-21T09:19:46;8.60;99.90
11122;DHT22;5615;49.304;10.576;2023-11-21T09:22:16;8.60;99.90
11122;DHT22;5615;49.304;10.576;2023-11-21T09:24:43;8.60;99.90
11122;DHT22;5615;49.304;10.576;2023-11-21T09:27:10;8.60;99.90
11122;DHT22;5615;49.304;10.576;2023-11-21T09:29:36;8.60;99.90
11122;DHT22;5615;49.304;10.576;2023-11-21T09:32:04;8.50;99.90
11122;DHT22;5615;49.304;10.576;2023-11-21T09:34:33;8.40;99.90
11122;DHT22;5615;49.304;10.576;2023-11-21T09:37:01;8.40;99.90
11122;DHT22;5615;49.304;10.576;2023-11-21T09:39:31;8.40;99.90
11122;DHT22;5615;49.304;10.576;2023-11-21T09:42:04;8.40;99.90
11122;DHT22;5615;49.304;10.576;2023-11-21T09:44:35;8.50;99.90
11122;DHT22;5615;49.304;10.576;2023-11-21T09:47:03;8.50;99.90
11122;DHT22;5615;49.304;10.576;2023-11-21T09:49:32;8.50;99.90
11122;DHT22;5615;49.304;10.576;2023-11-21T09:52:01;8.50;99.90
11122;DHT22;5615;49.304;10.576;2023-11-21T09:54:30;8.40;99.90
11122;DHT22;5615;49.304;10.576;2023-11-21T09:56:58;8.50;99.90
11122;DHT22;5615;49.304;10.576;2023-11-21T09:59:30;8.60;99.90
11122;DHT22;5615;49.304;10.576;2023-11-21T10:01:58;8.70;99.90
11122;DHT22;5615;49.304;10.576;2023-11-21T10:04:27;8.70;99.90
11122;DHT22;5615;49.304;10.576;2023-11-21T10:06:56;8.80;99.90
11122;DHT22;5615;49.304;10.576;2023-11-21T10:09:25;8.80;99.90
11122;DHT22;5615;49.304;10.576;2023-11-21T10:11:52;8.80;99.90
11122;DHT22;5615;49.304;10.576;2023-11-21T10:14:24;8.80;99.90
11122;DHT22;5615;49.304;10.576;2023-11-21T10:16:51;8.80;99.90
11122;DHT22;5615;49.304;10.576;2023-11-21T10:19:18;8.70;99.90
11122;DHT22;5615;49.304;10.576;2023-11-21T10:21:46;8.60;99.90
11122;DHT22;5615;49.304;10.576;2023-11-21T10:24:14;8.50;99.90
11122;DHT22;5615;49.304;10.576;2023-11-21T10:26:42;8.50;99.90
11122;DHT22;5615;49.304;10.576;2023-11-21T10:29:09;8.40;99.90
11122;DHT22;5615;49.304;10.576;2023-11-21T10:31:38;8.30;99.90
11122;DHT22;5615;49.304;10.576;2023-11-21T10:34:13;8.30;99.90
11122;DHT22;5615;49.304;10.576;2023-11-21T10:36:39;8.20;99.90
11122;DHT22;5615;49.304;10.576;2023-11-21T10:39:06;8.20;99.90
11122;DHT22;5615;49.304;10.576;2023-11-21T10:41:34;8.20;99.90
11122;DHT22;5615;49.304;10.576;2023-11-21T10:44:01;8.30;99.90
11122;DHT22;5615;49.304;10.576;2023-11-21T10:46:30;8.30;99.90
11122;DHT22;5615;49.304;10.576;2023-11-21T10:48:56;8.40;99.90
11122;DHT22;5615;49.304;10.576;2023-11-21T10:51:23;8.50;99.90
11122;DHT22;5615;49.304;10.576;2023-11-21T10:53:51;8.40;99.90
11122;DHT22;5615;49.304;10.576;2023-11-21T10:56:19;8.50;99.90
11122;DHT22;5615;49.304;10.576;2023-11-21T10:58:48;8.60;99.90
11122;DHT22;5615;49.304;10.576;2023-11-21T11:01:17;8.70;99.90
11122;DHT22;5615;49.304;10.576;2023-11-21T11:03:47;8.80;99.90
11122;DHT22;5615;49.304;10.576;2023-11-21T11:06:13;8.80;99.90
11122;DHT22;5615;49.304;10.576;2023-11-21T11:08:41;8.70;99.90
11122;DHT22;5615;49.304;10.576;2023-11-21T11:11:09;8.60;99.90
11122;DHT22;5615;49.304;10.576;2023-11-21T11:13:37;8.70;99.90
11122;DHT22;5615;49.304;10.576;2023-11-21T11:16:06;8.90;99.90
11122;DHT22;5615;49.304;10.576;2023-11-21T11:18:36;9.00;99.90
11122;DHT22;5615;49.304;10.576;2023-11-21T11:21:14;9.00;99.90
11122;DHT22;5615;49.304;10.576;2023-11-21T11:23:58;9.00;99.90
11122;DHT22;5615;49.304;10.576;2023-11-21T11:26:37;9.00;99.90
11122;DHT22;5615;49.304;10.576;2023-11-21T11:29:17;8.90;99.90
11122;DHT22;5615;49.304;10.576;2023-11-21T11:31:55;8.90;99.90
11122;DHT22;5615;49.304;10.576;2023-11-21T11:34:29;8.90;99.90
11122;DHT22;5615;49.304;10.576;2023-11-21T11:37:00;9.00;99.90
11122;DHT22;5615;49.304;10.576;2023-11-21T11:39:29;9.00;99.90
11122;DHT22;5615;49.304;10.576;2023-11-21T11:41:56;9.00;99.90
11122;DHT22;5615;49.304;10.576;2023-11-21T11:44:46;9.20;99.90
11122;DHT22;5615;49.304;10.576;2023-11-21T11:47:20;9.40;99.90
11122;DHT22;5615;49.304;10.576;2023-11-21T11:49:58;9.20;99.90
11122;DHT22;5615;49.304;10.576;2023-11-21T11:52:32;9.30;99.90
11122;DHT22;5615;49.304;10.576;2023-11-21T11:54:59;9.40;99.90
11122;DHT22;5615;49.304;10.576;2023-11-21T11:57:30;9.50;99.90
11122;DHT22;5615;49.304;10.576;2023-11-21T12:00:14;9.50;99.90
11122;DHT22;5615;49.304;10.576;2023-11-21T12:02:47;9.40;99.90
11122;DHT22;5615;49.304;10.576;2023-11-21T12:05:15;9.30;99.90
11122;DHT22;5615;49.304;10.576;2023-11-21T12:07:46;9.40;99.90
11122;DHT22;5615;49.304;10.576;2023-11-21T12:10:14;9.20;99.90
11122;DHT22;5615;49.304;10.576;2023-11-21T12:12:44;9.10;99.90
11122;DHT22;5615;49.304;10.576;2023-11-21T12:15:12;9.00;99.90
11122;DHT22;5615;49.304;10.576;2023-11-21T12:17:40;8.90;99.90
11122;DHT22;5615;49.304;10.576;2023-11-21T12:20:10;8.90;99.90
11122;DHT22;5615;49.304;10.576;2023-11-21T12:22:42;8.80;99.90
11122;DHT22;5615;49.304;10.576;2023-11-21T12:25:09;8.70;99.90
11122;DHT22;5615;49.304;10.576;2023-11-21T12:27:42;8.70;99.90
11122;DHT22;5615;49.304;10.576;2023-11-21T12:30:09;8.70;99.90
11122;DHT22;5615;49.304;10.576;2023-11-21T12:32:39;8.80;99.90
11122;DHT22;5615;49.304;10.576;2023-11-21T12:35:06;8.90;99.90
11122;DHT22;5615;49.304;10.576;2023-11-21T12:37:34;9.00;99.90
11122;DHT22;5615;49.304;10.576;2023-11-21T12:40:01;9.10;99.90
11122;DHT22;5615;49.304;10.576;2023-11-21T12:42:28;9.10;99.90
11122;DHT22;5615;49.304;10.576;2023-11-21T12:45:10;8.90;99.90
11122;DHT22;5615;49.304;10.576;2023-11-21T12:47:46;8.90;99.90
11122;DHT22;5615;49.304;10.576;2023-11-21T12:50:12;8.80;99.90
11122;DHT22;5615;49.304;10.576;2023-11-21T12:52:43;8.80;99.90
11122;DHT22;5615;49.304;10.576;2023-11-21T12:55:16;8.70;99.90
11122;DHT22;5615;49.304;10.576;2023-11-21T12:57:44;8.80;99.90
11122;DHT22;5615;49.304;10.576;2023-11-21T13:00:12;8.80;99.90
11122;DHT22;5615;49.304;10.576;2023-11-21T13:02:51;8.80;99.90
11122;DHT22;5615;49.304;10.576;2023-11-21T13:05:24;8.80;99.90
11122;DHT22;5615;49.304;10.576;2023-11-21T13:07:52;8.90;99.90
11122;DHT22;5615;49.304;10.576;2023-11-21T13:10:20;8.80;99.90
11122;DHT22;5615;49.304;10.576;2023-11-21T13:12:51;8.80;99.90
11122;DHT22;5615;49.304;10.576;2023-11-21T13:15:18;8.90;99.90
11122;DHT22;5615;49.304;10.576;2023-11-21T13:17:45;8.90;99.90
11122;DHT22;5615;49.304;10.576;2023-11-21T13:20:12;8.80;99.90
11122;DHT22;5615;49.304;10.576;2023-11-21T13:22:46;8.90;99.90
11122;DHT22;5615;49.304;10.576;2023-11-21T13:25:15;9.00;99.90
11122;DHT22;5615;49.304;10.576;2023-11-21T13:27:43;9.20;99.90
11122;DHT22;5615;49.304;10.576;2023-11-21T13:30:12;9.50;99.90
11122;DHT22;5615;49.304;10.576;2023-11-21T13:32:40;9.70;99.90
11122;DHT22;5615;49.304;10.576;2023-11-21T13:35:07;9.80;99.90
11122;DHT22;5615;49.304;10.576;2023-11-21T13:37:40;9.70;99.90
11122;DHT22;5615;49.304;10.576;2023-11-21T13:40:08;9.70;99.90
11122;DHT22;5615;49.304;10.576;2023-11-21T13:42:41;9.70;99.90
11122;DHT22;5615;49.304;10.576;2023-11-21T13:45:09;9.70;99.90
11122;DHT22;5615;49.304;10.576;2023-11-21T13:47:37;9.70;99.90
11122;DHT22;5615;49.304;10.576;2023-11-21T13:50:06;10.30;99.90
11122;DHT22;5615;49.304;10.576;2023-11-21T13:52:42;12.40;99.90
11122;DHT22;5615;49.304;10.576;2023-11-21T13:55:10;12.60;99.90
11122;DHT22;5615;49.304;10.576;2023-11-21T13:57:42;14.30;99.90
11122;DHT22;5615;49.304;10.576;2023-11-21T14:00:13;14.60;99.90
11122;DHT22;5615;49.304;10.576;2023-11-21T14:03:01;16.00;99.90
11122;DHT22;5615;49.304;10.576;2023-11-21T14:05:27;14.70;99.90
11122;DHT22;5615;49.304;10.576;2023-11-21T14:07:57;13.40;99.90
11122;DHT22;5615;49.304;10.576;2023-11-21T14:10:28;12.30;99.90
11122;DHT22;5615;49.304;10.576;2023-11-21T14:13:04;11.50;99.90
11122;DHT22;5615;49.304;10.576;2023-11-21T14:15:31;10.70;99.90
11122;DHT22;5615;49.304;10.576;2023-11-21T14:17:58;10.50;99.90
11122;DHT22;5615;49.304;10.576;2023-11-21T14:20:28;10.30;99.90
11122;DHT22;5615;49.304;10.576;2023-11-21T14:22:55;10.10;99.90
11122;DHT22;5615;49.304;10.576;2023-11-21T14:25:22;10.00;99.90
11122;DHT22;5615;49.304;10.576;2023-11-21T14:27:49;9.80;99.90
11122;DHT22;5615;49.304;10.576;2023-11-21T14:30:17;9.60;99.90
11122;DHT22;5615;49.304;10.576;2023-11-21T14:32:46;9.40;99.90
11122;DHT22;5615;49.304;10.576;2023-11-21T14:35:13;9.30;99.90
11122;DHT22;5615;49.304;10.576;2023-11-21T14:37:40;9.20;99.90
11122;DHT22;5615;49.304;10.576;2023-11-21T14:40:07;9.10;99.90
11122;DHT22;5615;49.304;10.576;2023-11-21T14:42:34;9.00;99.90
11122;DHT22;5615;49.304;10.576;2023-11-21T14:45:05;9.00;99.90
11122;DHT22;5615;49.304;10.576;2023-11-21T14:47:33;9.00;99.90
11122;DHT22;5615;49.304;10.576;2023-11-21T14:50:00;9.00;99.90
11122;DHT22;5615;49.304;10.576;2023-11-21T14:52:47;8.90;99.90
11122;DHT22;5615;49.304;10.576;2023-11-21T14:55:21;8.80;99.90
11122;DHT22;5615;49.304;10.576;2023-11-21T14:57:57;8.70;99.90
11122;DHT22;5615;49.304;10.576;2023-11-21T15:00:25;8.60;99.90
11122;DHT22;5615;49.304;10.576;2023-11-21T15:03:11;8.50;99.90
11122;DHT22;5615;49.304;10.576;2023-11-21T15:05:59;8.40;99.90
11122;DHT22;5615;49.304;10.576;2023-11-21T15:08:35;8.30;99.90
11122;DHT22;5615;49.304;10.576;2023-11-21T15:11:02;8.20;99.90
11122;DHT22;5615;49.304;10.576;2023-11-21T15:13:32;8.10;99.90
11122;DHT22;5615;49.304;10.576;2023-11-21T15:15:59;8.10;99.90
11122;DHT22;5615;49.304;10.576;2023-11-21T15:18:34;8.00;99.90
11122;DHT22;5615;49.304;10.576;2023-11-21T15:21:01;8.00;99.90
11122;DHT22;5615;49.304;10.576;2023-11-21T15:23:28;7.90;99.90
11122;DHT22;5615;49.304;10.576;2023-11-21T15:25:56;7.90;99.90
11122;DHT22;5615;49.304;10.576;2023-11-21T15:28:23;7.80;99.90
11122;DHT22;5615;49.304;10.576;2023-11-21T15:30:50;7.80;99.90
11122;DHT22;5615;49.304;10.576;2023-11-21T15:33:17;7.80;99.90
11122;DHT22;5615;49.304;10.576;2023-11-21T15:35:45;7.70;99.90
11122;DHT22;5615;49.304;10.576;2023-11-21T15:38:12;7.80;99.90
11122;DHT22;5615;49.304;10.576;2023-11-21T15:40:39;7.80;99.90
11122;DHT22;5615;49.304;10.576;2023-11-21T15:43:06;7.70;99.90
11122;DHT22;5615;49.304;10.576;2023-11-21T15:45:32;7.70;99.90
11122;DHT22;5615;49.304;10.576;2023-11-21T15:47:59;7.70;99.90
11122;DHT22;5615;49.304;10.576;2023-11-21T15:50:27;7.60;99.90
11122;DHT22;5615;49.304;10.576;2023-11-21T15:52:58;7.60;99.90